Time;durP1;ratioP1;P1;durP2;ratioP2;P2;SDS_P1;SDS_P2;PMS_P1;PMS_P2;Temp;Humidity;BMP_temperature;BMP_pressure;BME280_temperature;BME280_humidity;BME280_pressure;Samples;Min_cycle;Max_cycle;Signal;HPM_P1;HPM_P2
2021/07/11 00:02:28;;;;;;;15.15;9.63;;;;;;;15.81;77.63;100998.69;1670048;84;25943;-78
2021/07/11 00:04:55;;;;;;;9.53;7.22;;;;;;;15.80;77.75;100988.94;1693307;84;28334;-78
2021/07/11 00:07:22;;;;;;;9.48;6.25;;;;;;;15.78;77.88;100993.18;1662071;84;25791;-78
2021/07/11 00:09:49;;;;;;;7.12;6.12;;;;;;;15.73;77.90;100994.87;1622680;83;25949;-78
2021/07/11 00:12:16;;;;;;;9.85;6.20;;;;;;;15.70;77.77;100988.01;1668030;83;25456;-78
2021/07/11 00:14:43;;;;;;;7.85;5.28;;;;;;;15.64;77.45;100988.02;1698134;83;25838;-78
2021/07/11 00:17:10;;;;;;;5.62;5.12;;;;;;;15.60;77.61;100984.08;1643822;85;28239;-78
2021/07/11 00:19:37;;;;;;;9.33;4.70;;;;;;;15.57;77.60;100989.92;1702512;84;25796;-78
2021/07/11 00:22:04;;;;;;;5.25;4.78;;;;;;;15.54;77.62;100989.81;1654656;82;25925;-78
2021/07/11 00:24:32;;;;;;;4.78;4.17;;;;;;;15.51;77.65;100986.68;1642345;83;25872;-78
2021/07/11 00:26:59;;;;;;;7.50;4.55;;;;;;;15.47;77.58;100986.28;1688735;84;26126;-78
2021/07/11 00:29:26;;;;;;;5.42;4.40;;;;;;;15.44;77.56;100991.57;1702935;84;27652;-78
2021/07/11 00:31:53;;;;;;;7.20;4.78;;;;;;;15.40;77.26;100990.81;1643482;84;25850;-78
2021/07/11 00:34:20;;;;;;;7.30;5.70;;;;;;;15.37;77.60;100990.73;1638258;84;26274;-78
2021/07/11 00:36:47;;;;;;;5.72;5.15;;;;;;;15.38;77.80;100986.14;1661191;85;25896;-78
2021/07/11 00:39:14;;;;;;;8.93;4.97;;;;;;;15.37;77.73;100985.84;1686146;84;25869;-78
2021/07/11 00:41:44;;;;;;;7.08;5.87;;;;;;;15.34;77.52;100988.95;1662189;84;27492;-78
2021/07/11 00:44:11;;;;;;;7.28;6.47;;;;;;;15.27;77.49;100990.81;1636714;84;26535;-78
2021/07/11 00:46:41;;;;;;;6.65;5.50;;;;;;;15.23;77.84;100996.31;1698423;83;26256;-78
2021/07/11 00:49:09;;;;;;;9.60;6.40;;;;;;;15.20;77.67;100996.75;1689155;84;25783;-78
2021/07/11 00:51:37;;;;;;;10.18;7.45;;;;;;;15.15;77.78;101000.58;1592823;85;26318;-78
2021/07/11 00:54:05;;;;;;;10.65;7.45;;;;;;;15.13;77.90;101000.80;1674462;84;28312;-78
2021/07/11 00:56:33;;;;;;;11.08;7.35;;;;;;;15.12;77.94;101001.00;1690648;84;25889;-78
2021/07/11 00:59:00;;;;;;;10.85;7.53;;;;;;;15.08;77.83;101003.27;1640483;84;26489;-78
2021/07/11 01:01:45;;;;;;;7.87;6.90;;;;;;;15.04;77.86;101000.67;1644522;82;25818;-78
2021/07/11 01:04:23;;;;;;;14.90;8.10;;;;;;;14.99;77.91;101000.98;1692589;82;25789;-78
2021/07/11 01:06:55;;;;;;;9.18;7.42;;;;;;;14.95;78.14;100998.39;1710078;82;28222;-78
2021/07/11 01:09:34;;;;;;;7.97;7.17;;;;;;;14.95;78.17;100998.39;1728619;82;25851;-78
2021/07/11 01:12:27;;;;;;;10.45;6.85;;;;;;;14.95;78.31;101002.44;1710716;81;26519;-78
2021/07/11 01:14:57;;;;;;;7.00;6.33;;;;;;;14.92;78.36;100998.79;1654810;84;25896;-78
2021/07/11 01:17:27;;;;;;;10.45;8.45;;;;;;;14.89;78.22;100997.84;1716188;82;26503;-78
2021/07/11 01:20:06;;;;;;;10.23;7.87;;;;;;;14.84;78.16;100997.09;1739647;81;27624;-78
2021/07/11 01:26:41;;;;;;;8.55;6.67;;;;;;;14.82;78.45;100997.02;1732918;81;25873;-77
2021/07/11 01:29:09;;;;;;;6.97;6.25;;;;;;;14.78;78.55;101006.02;1675152;82;26111;-78
2021/07/11 01:31:38;;;;;;;10.05;6.90;;;;;;;14.76;78.54;101001.34;1711766;81;25825;-78
2021/07/11 01:34:06;;;;;;;6.95;5.87;;;;;;;14.75;78.67;100998.34;1704554;81;27469;-78
2021/07/11 01:36:34;;;;;;;9.10;6.10;;;;;;;14.76;78.68;101001.34;1737080;81;25838;-78
2021/07/11 01:39:03;;;;;;;8.53;5.83;;;;;;;14.75;78.57;101005.09;1683350;83;25735;-78
2021/07/11 01:41:33;;;;;;;9.68;7.08;;;;;;;14.73;78.53;101007.16;1717234;81;25830;-78
2021/07/11 01:44:03;;;;;;;7.10;6.40;;;;;;;14.71;78.61;101007.89;1659385;82;25906;-78
2021/07/11 01:46:31;;;;;;;10.63;7.15;;;;;;;14.67;78.71;101009.30;1737996;81;28273;-78
2021/07/11 01:49:00;;;;;;;7.22;6.62;;;;;;;14.60;78.80;101009.82;1708503;81;25771;-78
2021/07/11 01:51:28;;;;;;;9.25;6.83;;;;;;;14.55;78.93;101013.13;1714743;82;25920;-78
2021/07/11 01:53:57;;;;;;;7.85;6.60;;;;;;;14.51;79.04;101017.26;1664645;82;26204;-78
2021/07/11 01:56:26;;;;;;;6.85;6.25;;;;;;;14.47;79.27;101024.59;1702284;82;26015;-78
2021/07/11 01:58:54;;;;;;;10.05;6.25;;;;;;;14.46;79.43;101019.72;1681501;81;28011;-77
2021/07/11 02:01:22;;;;;;;9.73;6.37;;;;;;;14.46;79.41;101018.88;1713935;82;26480;-79
2021/07/11 02:03:51;;;;;;;7.87;5.85;;;;;;;14.42;79.14;101017.63;1658956;82;25866;-78
2021/07/11 02:06:18;;;;;;;9.43;6.42;;;;;;;14.41;79.09;101015.97;1706612;81;25928;-78
2021/07/11 02:08:47;;;;;;;11.65;6.30;;;;;;;14.37;79.15;101016.87;1704253;81;25834;-78
2021/07/11 02:11:17;;;;;;;7.80;5.65;;;;;;;14.35;79.23;101020.28;1669357;81;27526;-77
2021/07/11 02:13:57;;;;;;;5.83;5.33;;;;;;;14.34;79.08;101013.25;1714734;81;25874;-77
2021/07/11 02:16:42;;;;;;;7.85;5.33;;;;;;;14.31;78.88;101020.37;1714799;82;25777;-78
2021/07/11 02:19:11;;;;;;;5.87;4.60;;;;;;;14.23;78.71;101025.91;1705043;82;26206;-78
2021/07/11 02:21:40;;;;;;;9.20;5.10;;;;;;;14.17;78.71;101026.72;1710580;81;26640;-78
2021/07/11 02:24:09;;;;;;;8.33;4.47;;;;;;;14.17;78.89;101020.48;1714869;81;27505;-78
2021/07/11 02:26:38;;;;;;;5.92;4.60;;;;;;;14.17;78.90;101019.14;1730424;81;26580;-78
2021/07/11 02:29:07;;;;;;;6.00;5.40;;;;;;;14.12;78.72;101018.89;1674775;82;25881;-78
2021/07/11 02:31:41;;;;;;;27.95;13.40;;;;;;;14.08;78.90;101025.20;1685826;81;25822;-78
2021/07/11 02:34:10;;;;;;;32.83;16.17;;;;;;;14.04;78.99;101023.11;1707859;83;26020;-78
2021/07/11 02:36:47;;;;;;;29.77;15.43;;;;;;;14.01;79.10;101028.38;1706979;83;27570;-80
2021/07/11 02:39:20;;;;;;;13.90;8.38;;;;;;;14.00;79.12;101025.38;1710437;83;25832;-78
2021/07/11 02:41:54;;;;;;;44.48;19.32;;;;;;;13.99;79.30;101025.05;1665224;82;25900;-78
2021/07/11 02:44:23;;;;;;;18.25;10.80;;;;;;;13.99;79.49;101023.70;1693061;83;25588;-78
2021/07/11 02:47:01;;;;;;;19.48;10.25;;;;;;;14.02;79.44;101025.17;1713422;83;26441;-78
2021/07/11 02:49:32;;;;;;;9.55;7.55;;;;;;;14.02;79.53;101024.66;1686359;84;27310;-78
2021/07/11 02:52:05;;;;;;;8.68;6.67;;;;;;;14.03;79.62;101024.16;1689055;83;25830;-78
2021/07/11 02:54:43;;;;;;;17.40;8.13;;;;;;;14.04;79.43;101024.45;1678630;83;25844;-78
2021/07/11 02:57:12;;;;;;;7.10;5.92;;;;;;;14.01;79.40;101029.72;1712195;83;26621;-78
2021/07/11 02:59:41;;;;;;;10.25;6.15;;;;;;;13.98;79.32;101026.09;1675692;81;25816;-78
2021/07/11 03:02:10;;;;;;;6.15;5.40;;;;;;;13.94;79.36;101024.30;1716505;82;27470;-78
2021/07/11 03:04:41;;;;;;;6.35;5.65;;;;;;;13.92;79.40;101023.66;1697652;82;25902;-77
2021/07/11 03:07:08;;;;;;;5.70;4.95;;;;;;;13.93;79.51;101027.19;1705450;81;25862;-78
2021/07/11 03:09:42;;;;;;;8.08;5.08;;;;;;;13.93;79.62;101025.84;1664465;82;26096;-77
2021/07/11 03:12:12;;;;;;;6.67;4.92;;;;;;;13.91;79.60;101023.86;1679757;84;25754;-78
2021/07/11 03:14:39;;;;;;;6.97;4.97;;;;;;;13.88;79.64;101017.52;1731103;81;27552;-78
2021/07/11 03:17:10;;;;;;;5.45;4.62;;;;;;;13.88;79.81;101021.55;1697685;81;25797;-78
2021/07/11 03:19:40;;;;;;;7.08;6.33;;;;;;;13.89;79.87;101024.58;1687678;81;25772;-78
2021/07/11 03:22:09;;;;;;;8.78;5.30;;;;;;;13.88;79.81;101022.39;1714481;81;26470;-78
2021/07/11 03:24:38;;;;;;;7.60;4.67;;;;;;;13.89;79.84;101028.62;1658368;83;25859;-78
2021/07/11 03:27:07;;;;;;;8.85;6.10;;;;;;;13.90;79.95;101031.61;1711180;83;27462;-78
2021/07/11 03:30:03;;;;;;;8.40;6.85;;;;;;;13.93;80.07;101033.92;1653445;82;26002;-79
2021/07/11 03:32:52;;;;;;;7.10;5.85;;;;;;;13.96;80.16;101028.16;1736296;81;25870;-78
2021/07/11 03:35:36;;;;;;;6.40;5.80;;;;;;;13.99;80.22;101027.73;1690954;82;25856;-78
2021/07/11 03:38:07;;;;;;;9.23;5.75;;;;;;;14.07;80.39;101030.80;1720913;80;25853;-78
2021/07/11 03:40:41;;;;;;;9.55;6.37;;;;;;;14.19;80.43;101034.08;1685619;81;27543;-78
2021/07/11 03:43:13;;;;;;;37.15;20.02;;;;;;;14.28;80.32;101034.23;1742383;81;26027;-78
2021/07/11 03:45:43;;;;;;;42.78;21.68;;;;;;;14.35;80.35;101035.65;1718823;83;25855;-78
2021/07/11 03:48:21;;;;;;;38.80;19.55;;;;;;;14.40;80.49;101037.20;1711984;83;25776;-78
2021/07/11 03:50:53;;;;;;;29.52;17.27;;;;;;;14.42;80.62;101027.89;1667044;83;25835;-78
2021/07/11 03:53:24;;;;;;;25.68;16.70;;;;;;;14.50;80.79;101033.61;1707801;83;28148;-78
2021/07/11 03:55:53;;;;;;;26.07;15.63;;;;;;;14.55;81.02;101037.89;1712284;83;25855;-79
2021/07/11 03:58:23;;;;;;;24.45;13.95;;;;;;;14.59;81.16;101036.45;1663029;83;26769;-78
2021/07/11 04:00:52;;;;;;;19.10;13.88;;;;;;;14.66;81.32;101036.80;1685272;83;26754;-79
2021/07/11 04:03:25;;;;;;;15.98;12.00;;;;;;;14.75;82.19;101035.27;1666606;83;25802;-78
2021/07/11 04:05:53;;;;;;;15.80;12.85;;;;;;;14.87;82.77;101040.37;1711643;83;27421;-78
2021/07/11 04:08:22;;;;;;;15.40;13.88;;;;;;;14.97;83.20;101038.94;1669961;83;25779;-78
2021/07/11 04:10:49;;;;;;;14.87;12.60;;;;;;;15.11;83.44;101041.98;1687818;83;25889;-78
2021/07/11 04:13:17;;;;;;;13.70;12.28;;;;;;;15.23;83.70;101040.33;1661158;83;25800;-78
2021/07/11 04:15:55;;;;;;;15.95;12.35;;;;;;;15.36;83.83;101039.52;1715140;83;26085;-78
2021/07/11 04:18:25;;;;;;;14.35;12.78;;;;;;;15.49;84.06;101045.45;1687377;83;28154;-78
2021/07/11 04:20:57;;;;;;;15.55;13.88;;;;;;;15.60;84.28;101046.19;1647997;83;25794;-78
2021/07/11 04:23:30;;;;;;;20.27;14.15;;;;;;;15.70;84.36;101051.99;1676133;83;26290;-78
2021/07/11 04:25:57;;;;;;;15.95;13.93;;;;;;;15.78;84.38;101051.25;1708011;83;25969;-78
2021/07/11 04:28:27;;;;;;;17.95;14.87;;;;;;;15.87;84.68;101051.36;1667271;83;26684;-78
2021/07/11 04:30:54;;;;;;;13.53;12.23;;;;;;;15.95;84.76;101050.32;1715578;83;28193;-78
2021/07/11 04:33:22;;;;;;;16.20;13.95;;;;;;;16.04;84.97;101049.87;1669214;83;25818;-78
2021/07/11 04:35:49;;;;;;;15.18;13.43;;;;;;;16.15;85.06;101058.69;1691429;83;26605;-78
2021/07/11 04:38:16;;;;;;;14.45;12.63;;;;;;;16.23;85.07;101059.80;1664158;83;25909;-78
2021/07/11 04:40:43;;;;;;;12.90;11.60;;;;;;;16.32;85.15;101063.09;1688767;83;25877;-78
2021/07/11 04:43:10;;;;;;;12.05;10.88;;;;;;;16.41;85.20;101065.89;1664236;83;27882;-79
2021/07/11 04:45:37;;;;;;;13.05;11.65;;;;;;;16.48;85.18;101066.70;1689170;83;25925;-78
2021/07/11 04:48:05;;;;;;;11.10;10.05;;;;;;;16.55;85.21;101064.81;1665088;83;26049;-78
2021/07/11 04:50:32;;;;;;;11.30;10.25;;;;;;;16.61;85.06;101061.27;1687907;83;26235;-78
2021/07/11 04:52:59;;;;;;;10.68;9.65;;;;;;;16.67;85.26;101056.87;1658629;83;25993;-78
2021/07/11 04:55:26;;;;;;;10.95;9.78;;;;;;;16.71;85.31;101061.64;1730665;82;27527;-78
2021/07/11 04:57:53;;;;;;;9.53;8.28;;;;;;;16.79;85.38;101056.48;1717172;81;26495;-78
2021/07/11 05:00:20;;;;;;;8.98;8.05;;;;;;;16.87;85.50;101059.77;1658416;82;26679;-78
2021/07/11 05:02:48;;;;;;;8.43;7.72;;;;;;;16.97;85.73;101059.31;1668733;82;25812;-78
2021/07/11 05:05:15;;;;;;;8.70;7.72;;;;;;;17.08;85.67;101068.09;1737782;81;26422;-78
2021/07/11 05:07:42;;;;;;;7.97;7.30;;;;;;;17.21;86.06;101063.13;1674784;81;27706;-78
2021/07/11 05:10:11;;;;;;;8.60;7.87;;;;;;;17.34;86.04;101053.55;1689630;81;25982;-78
2021/07/11 05:12:38;;;;;;;7.40;6.70;;;;;;;17.48;85.88;101057.29;1689299;81;25721;-78
2021/07/11 05:15:08;;;;;;;7.90;7.20;;;;;;;17.62;85.95;101058.05;1737118;81;25563;-78
2021/07/11 05:17:35;;;;;;;8.05;7.45;;;;;;;17.76;86.11;101055.52;1694303;83;25898;-78
2021/07/11 05:20:05;;;;;;;8.23;7.25;;;;;;;17.89;85.78;101054.56;1683974;82;27637;-78
2021/07/11 05:22:32;;;;;;;8.70;6.67;;;;;;;18.00;85.48;101053.83;1672363;82;26010;-78
2021/07/11 05:24:59;;;;;;;7.30;6.70;;;;;;;18.09;85.16;101051.94;1723085;81;25962;-78
2021/07/11 05:27:27;;;;;;;7.67;7.08;;;;;;;18.19;84.92;101054.98;1678188;81;26244;-79
2021/07/11 05:29:54;;;;;;;7.70;7.00;;;;;;;18.29;85.14;101057.16;1683863;84;26629;-79
2021/07/11 05:32:21;;;;;;;6.95;6.37;;;;;;;18.39;85.17;101054.77;1677788;81;28113;-78
2021/07/11 05:34:48;;;;;;;6.95;6.30;;;;;;;18.50;85.20;101061.34;1734630;81;25802;-79
2021/07/11 05:37:15;;;;;;;7.15;6.55;;;;;;;18.60;84.71;101057.55;1660195;83;25868;-78
2021/07/11 05:39:42;;;;;;;6.78;6.28;;;;;;;18.69;84.66;101055.64;1675155;82;25528;-78
2021/07/11 05:42:09;;;;;;;6.22;5.62;;;;;;;18.79;84.93;101045.61;1719407;81;25766;-79
2021/07/11 05:44:36;;;;;;;6.58;5.95;;;;;;;18.92;84.80;101057.66;1732309;81;28317;-78
2021/07/11 05:47:04;;;;;;;6.72;6.20;;;;;;;19.01;84.48;101050.84;1682909;83;25812;-78
2021/07/11 05:49:31;;;;;;;6.40;5.80;;;;;;;19.08;84.32;101051.56;1708204;83;26491;-78
2021/07/11 05:52:00;;;;;;;8.75;5.53;;;;;;;19.16;83.49;101047.98;1656036;83;25839;-78
2021/07/11 05:54:27;;;;;;;5.75;5.25;;;;;;;19.26;83.29;101047.44;1734488;81;25740;-78
2021/07/11 05:56:54;;;;;;;5.05;4.65;;;;;;;19.35;82.94;101036.56;1670655;81;27660;-78
2021/07/11 05:59:21;;;;;;;4.47;4.08;;;;;;;19.42;82.44;101039.98;1689316;83;25836;-78
2021/07/11 06:01:48;;;;;;;4.70;4.30;;;;;;;19.52;82.35;101039.42;1692235;81;25805;-78
2021/07/11 06:04:15;;;;;;;7.37;4.60;;;;;;;19.60;81.67;101040.42;1705259;82;26358;-78
2021/07/11 06:06:42;;;;;;;4.85;4.45;;;;;;;19.68;81.79;101041.43;1690564;81;25969;-78
2021/07/11 06:09:09;;;;;;;4.42;4.12;;;;;;;19.78;81.41;101045.77;1687071;83;28021;-78
2021/07/11 06:11:36;;;;;;;4.50;4.20;;;;;;;19.86;80.85;101038.61;1664429;82;25926;-78
2021/07/11 06:14:03;;;;;;;4.53;4.22;;;;;;;19.96;81.00;101038.83;1744993;81;25758;-78
2021/07/11 06:16:30;;;;;;;5.03;4.53;;;;;;;20.06;80.99;101034.17;1683816;82;25792;-78
2021/07/11 06:18:57;;;;;;;8.13;4.03;;;;;;;20.13;80.42;101031.61;1691639;81;26954;-78
2021/07/11 06:21:24;;;;;;;5.30;3.77;;;;;;;20.23;80.54;101040.02;1698063;81;27433;-78
2021/07/11 06:23:51;;;;;;;4.42;4.03;;;;;;;20.35;80.40;101040.00;1745400;81;25725;-78
2021/07/11 06:26:18;;;;;;;3.87;3.58;;;;;;;20.42;79.57;101035.27;1680344;82;25789;-78
2021/07/11 06:28:45;;;;;;;5.35;3.90;;;;;;;20.49;79.83;101030.48;1692767;81;25812;-78
2021/07/11 06:31:12;;;;;;;4.55;3.90;;;;;;;20.57;78.64;101030.93;1665283;81;25896;-78
2021/07/11 06:33:39;;;;;;;3.45;3.15;;;;;;;20.65;78.57;101028.38;1712118;81;27553;-78
2021/07/11 06:36:06;;;;;;;5.12;3.75;;;;;;;20.72;77.98;101023.07;1689246;82;26183;-78
2021/07/11 06:38:33;;;;;;;4.08;3.70;;;;;;;20.78;77.59;101025.90;1699432;83;25848;-78
2021/07/11 06:41:00;;;;;;;3.92;3.62;;;;;;;20.81;77.18;101030.88;1678281;83;26569;-78
2021/07/11 06:43:27;;;;;;;4.40;4.10;;;;;;;20.86;77.48;101018.70;1740822;81;25915;-78
2021/07/11 06:45:56;;;;;;;3.62;3.37;;;;;;;20.95;78.62;101023.52;1691261;83;27502;-78
2021/07/11 06:48:25;;;;;;;3.92;3.62;;;;;;;21.10;78.50;101021.63;1656701;83;25984;-78
2021/07/11 06:50:55;;;;;;;3.70;3.22;;;;;;;21.21;77.98;101022.11;1690530;82;25886;-78
2021/07/11 06:53:22;;;;;;;5.33;3.52;;;;;;;21.32;77.46;101017.93;1727299;82;25734;-78
2021/07/11 06:55:50;;;;;;;3.77;3.58;;;;;;;21.38;76.80;101014.77;1677774;82;26313;-78
2021/07/11 06:58:18;;;;;;;3.17;2.90;;;;;;;21.46;76.43;101015.71;1684694;81;27465;-78
2021/07/11 07:00:45;;;;;;;3.20;2.83;;;;;;;21.55;75.62;101015.59;1677664;81;25912;-78
2021/07/11 07:03:12;;;;;;;3.20;2.85;;;;;;;21.57;75.12;101017.53;1737909;81;25989;-78
2021/07/11 07:05:39;;;;;;;7.33;2.92;;;;;;;21.65;75.90;101017.64;1687103;82;26641;-78
2021/07/11 07:08:06;;;;;;;2.72;2.52;;;;;;;21.76;74.29;101017.55;1685835;83;25931;-78
2021/07/11 07:10:33;;;;;;;3.85;2.60;;;;;;;21.82;74.73;101017.95;1657647;83;27424;-78
2021/07/11 07:13:00;;;;;;;3.67;2.60;;;;;;;21.89;74.61;101017.24;1727175;82;26426;-78
2021/07/11 07:15:27;;;;;;;2.90;2.70;;;;;;;22.00;73.86;101014.12;1671840;82;25776;-78
2021/07/11 07:17:55;;;;;;;4.03;2.62;;;;;;;22.05;73.68;101014.17;1682509;82;25812;-78
2021/07/11 07:20:22;;;;;;;5.78;3.50;;;;;;;22.10;73.33;101014.25;1718838;83;25806;-78
2021/07/11 07:22:49;;;;;;;5.17;2.50;;;;;;;22.18;73.10;101011.08;1736444;81;27421;-78
2021/07/11 07:25:18;;;;;;;3.00;2.70;;;;;;;22.21;72.84;101015.51;1680033;82;25751;-79
2021/07/11 07:27:46;;;;;;;2.55;2.37;;;;;;;22.24;70.98;101019.08;1723082;81;25885;-78
2021/07/11 07:30:18;;;;;;;2.58;2.37;;;;;;;22.18;70.20;101009.71;1728433;82;26170;-78
2021/07/11 07:32:51;;;;;;;3.83;2.42;;;;;;;22.19;71.46;101007.28;1690914;81;25868;-78
2021/07/11 07:35:20;;;;;;;3.60;2.65;;;;;;;22.28;71.37;101010.39;1687173;81;27700;-78
2021/07/11 07:37:48;;;;;;;2.40;2.20;;;;;;;22.25;69.99;101018.02;1712814;81;25898;-78
2021/07/11 07:40:17;;;;;;;2.62;2.10;;;;;;;22.17;69.69;101017.09;1745236;81;25909;-78
2021/07/11 07:42:47;;;;;;;3.60;2.02;;;;;;;22.18;70.45;101011.08;1655957;81;25941;-78
2021/07/11 07:45:15;;;;;;;2.37;2.08;;;;;;;22.25;69.89;101011.72;1738401;81;26467;-78
2021/07/11 07:47:42;;;;;;;1.90;1.80;;;;;;;22.31;68.78;101009.34;1717572;82;27452;-78
2021/07/11 07:50:12;;;;;;;2.05;1.82;;;;;;;22.25;68.73;101016.65;1702631;82;25758;-78
2021/07/11 07:52:39;;;;;;;2.17;1.98;;;;;;;22.28;68.18;101013.13;1693786;81;25637;-78
2021/07/11 07:55:08;;;;;;;3.42;2.08;;;;;;;22.30;68.70;101019.16;1690334;81;25878;-78
2021/07/11 07:57:35;;;;;;;3.72;2.02;;;;;;;22.31;68.60;101018.06;1712897;81;25851;-81
2021/07/11 08:00:06;;;;;;;4.42;2.30;;;;;;;22.40;68.79;101019.27;1725197;82;27411;-78
2021/07/11 08:02:35;;;;;;;1.90;1.77;;;;;;;22.52;68.19;101012.59;1711725;82;25764;-78
2021/07/11 08:05:03;;;;;;;2.35;1.60;;;;;;;22.60;67.72;101009.47;1687675;83;26397;-78
2021/07/11 08:07:30;;;;;;;2.27;1.77;;;;;;;22.62;67.86;101012.77;1690700;82;26621;-78
2021/07/11 08:09:57;;;;;;;3.35;2.05;;;;;;;22.69;67.65;101015.30;1721196;81;26613;-78
2021/07/11 08:12:24;;;;;;;2.95;1.80;;;;;;;22.79;68.04;101007.21;1682635;81;27579;-78
2021/07/11 08:14:51;;;;;;;3.05;1.77;;;;;;;22.96;68.54;101015.60;1696467;82;25742;-78
2021/07/11 08:17:18;;;;;;;1.90;1.80;;;;;;;23.09;66.62;101017.63;1703192;82;25834;-78
2021/07/11 08:19:45;;;;;;;2.62;2.42;;;;;;;23.13;66.01;101016.84;1714235;81;25931;-78
2021/07/11 08:22:12;;;;;;;1.92;1.82;;;;;;;23.20;66.71;101016.10;1681740;81;26630;-78
2021/07/11 08:24:39;;;;;;;2.42;2.20;;;;;;;23.29;66.64;101013.72;1675059;81;28355;-78
2021/07/11 08:27:06;;;;;;;2.45;2.25;;;;;;;23.38;66.14;101019.00;1698375;81;25888;-78
2021/07/11 08:29:33;;;;;;;3.85;1.98;;;;;;;23.46;66.37;101019.34;1730871;81;26494;-78
2021/07/11 08:32:00;;;;;;;3.12;2.20;;;;;;;23.50;65.56;101018.30;1656356;82;26041;-78
2021/07/11 08:34:27;;;;;;;1.80;1.70;;;;;;;23.54;67.66;101013.41;1717192;81;25834;-78
2021/07/11 08:36:59;;;;;;;2.37;1.62;;;;;;;23.64;66.48;101020.31;1676817;82;27615;-78
2021/07/11 08:39:24;;;;;;;1.82;1.72;;;;;;;23.71;66.21;101011.89;1733823;81;25836;-78
2021/07/11 08:41:51;;;;;;;1.90;1.65;;;;;;;23.84;66.18;101018.27;1661825;83;25878;-78
2021/07/11 08:44:18;;;;;;;1.98;1.80;;;;;;;23.83;65.22;101019.34;1705447;81;25798;-78
2021/07/11 08:46:45;;;;;;;5.03;2.08;;;;;;;23.73;65.08;101021.48;1715086;81;26511;-78
2021/07/11 08:49:12;;;;;;;4.00;1.80;;;;;;;23.59;65.18;101014.80;1728177;81;27618;-78
2021/07/11 08:51:39;;;;;;;4.55;1.80;;;;;;;23.52;65.73;101012.02;1652630;82;26036;-78
2021/07/11 08:54:06;;;;;;;1.60;1.50;;;;;;;23.42;64.73;101003.72;1710312;81;25880;-78
2021/07/11 08:56:34;;;;;;;4.45;1.87;;;;;;;23.32;64.60;101013.18;1712113;81;26782;-78
2021/07/11 08:59:01;;;;;;;4.70;1.52;;;;;;;23.23;64.56;101003.80;1741472;81;25768;-78
2021/07/11 09:01:29;;;;;;;2.55;1.37;;;;;;;23.23;64.67;101006.00;1647386;82;27380;-78
2021/07/11 09:04:10;;;;;;;1.98;1.72;;;;;;;23.33;64.60;101003.94;1702511;81;26628;-78
2021/07/11 09:06:54;;;;;;;2.02;1.80;;;;;;;23.44;64.86;101003.74;1720521;81;25864;-78
2021/07/11 09:09:27;;;;;;;1.80;1.70;;;;;;;23.61;65.91;101007.16;1744414;81;25778;-78
2021/07/11 09:12:01;;;;;;;2.27;2.12;;;;;;;23.66;65.39;101006.37;1678755;81;26137;-78
2021/07/11 09:14:29;;;;;;;2.30;1.40;;;;;;;23.76;64.97;101009.16;1695767;81;28511;-78
2021/07/11 09:16:58;;;;;;;1.47;1.37;;;;;;;23.91;64.82;101004.36;1716071;81;25941;-78
2021/07/11 09:19:38;;;;;;;1.65;1.42;;;;;;;24.04;64.97;101003.86;1721262;82;25866;-78
2021/07/11 09:22:14;;;;;;;3.65;1.60;;;;;;;24.16;64.03;101003.98;1696225;81;26452;-78
2021/07/11 09:24:58;;;;;;;1.67;1.57;;;;;;;24.28;64.63;100999.10;1704724;81;26471;-78
2021/07/11 09:27:31;;;;;;;1.98;1.82;;;;;;;24.41;64.12;100994.51;1717638;81;28235;-78
2021/07/11 09:30:01;;;;;;;1.27;1.20;;;;;;;24.53;62.79;100994.83;1734610;81;25857;-78
2021/07/11 09:32:34;;;;;;;3.58;1.47;;;;;;;24.49;62.47;100993.15;1657014;81;25918;-78
2021/07/11 09:35:13;;;;;;;1.67;1.30;;;;;;;24.53;61.60;100993.45;1703096;82;25828;-78
2021/07/11 09:37:44;;;;;;;1.45;1.30;;;;;;;24.59;61.40;100995.11;1738383;81;26555;-78
2021/07/11 09:40:14;;;;;;;3.30;1.47;;;;;;;24.49;60.91;100989.04;1719230;81;27388;-78
2021/07/11 09:42:44;;;;;;;2.65;1.55;;;;;;;24.41;61.04;100989.56;1666048;83;26569;-78
2021/07/11 09:45:18;;;;;;;1.50;1.15;;;;;;;24.38;61.85;100983.25;1722136;81;25361;-78
2021/07/11 09:47:52;;;;;;;1.55;1.45;;;;;;;24.43;61.72;100976.43;1705669;82;26107;-78
2021/07/11 09:50:23;;;;;;;1.87;1.40;;;;;;;24.52;62.41;100974.82;1707932;81;26018;-78
2021/07/11 09:52:53;;;;;;;1.40;1.10;;;;;;;24.58;61.45;100979.75;1688865;81;27561;-78
2021/07/11 09:55:30;;;;;;;2.27;1.30;;;;;;;24.45;60.46;100980.55;1719022;82;25832;-78
2021/07/11 09:58:00;;;;;;;3.00;1.75;;;;;;;24.35;59.61;100978.33;1698588;82;25882;-78
2021/07/11 10:00:36;;;;;;;1.98;1.52;;;;;;;24.26;61.14;100982.13;1727505;81;48456;-78
2021/07/11 10:03:11;;;;;;;1.40;1.30;;;;;;;24.25;61.07;100976.92;1716930;81;25772;-78
2021/07/11 10:05:41;;;;;;;1.27;1.22;;;;;;;24.31;61.30;100970.38;1661847;83;27430;-78
2021/07/11 10:08:10;;;;;;;1.30;1.20;;;;;;;24.45;62.31;100970.14;1681288;83;25767;-79
2021/07/11 10:10:40;;;;;;;2.25;1.45;;;;;;;24.48;60.79;100968.24;1732539;82;25952;-78
2021/07/11 10:13:08;;;;;;;2.05;1.60;;;;;;;24.57;61.99;100957.58;1693076;82;25791;-78
2021/07/11 10:15:38;;;;;;;1.60;1.50;;;;;;;24.66;60.83;100964.19;1673369;82;25896;-78
2021/07/11 10:18:17;;;;;;;1.67;1.42;;;;;;;24.73;60.95;100966.09;1684283;82;27634;-78
2021/07/11 10:20:52;;;;;;;1.30;1.20;;;;;;;24.79;60.61;100962.30;1709476;83;25899;-78
2021/07/11 10:23:34;;;;;;;2.42;1.30;;;;;;;24.84;59.79;100968.63;1667194;83;26510;-78
2021/07/11 10:26:06;;;;;;;1.90;1.80;;;;;;;24.94;61.19;100969.17;1629802;83;26232;-78
2021/07/11 10:28:36;;;;;;;1.70;1.60;;;;;;;25.00;60.50;100967.53;1710394;82;25781;-78
2021/07/11 10:31:05;;;;;;;1.50;1.40;;;;;;;25.03;60.30;100969.75;1713255;82;27597;-78
2021/07/11 10:33:45;;;;;;;1.55;1.45;;;;;;;25.09;60.65;100967.28;1668748;82;26455;-79
2021/07/11 10:36:14;;;;;;;1.62;1.52;;;;;;;25.09;58.92;100967.28;1673859;83;25880;-78
2021/07/11 10:38:53;;;;;;;5.40;1.45;;;;;;;25.05;58.05;100959.33;1668903;83;25835;-78
2021/07/11 10:41:27;;;;;;;3.80;1.40;;;;;;;25.05;58.90;100956.59;1726053;82;25713;-79
2021/07/11 10:44:14;;;;;;;1.67;1.47;;;;;;;25.12;59.47;100960.43;1705434;82;28656;-78
2021/07/11 10:46:49;;;;;;;1.50;1.40;;;;;;;25.16;59.28;100962.35;1670692;83;25970;-78
2021/07/11 10:49:30;;;;;;;1.40;1.30;;;;;;;25.15;59.11;100958.49;1691301;84;25879;-79
2021/07/11 10:52:07;;;;;;;2.30;1.50;;;;;;;25.26;59.43;100957.41;1715867;82;25800;-79
2021/07/11 10:54:52;;;;;;;1.60;1.50;;;;;;;25.46;58.58;100961.55;1721329;82;25959;-78
2021/07/11 10:57:34;;;;;;;1.20;1.20;;;;;;;25.56;58.62;100956.03;1705249;82;27408;-78
2021/07/11 11:00:19;;;;;;;2.27;1.22;;;;;;;25.57;57.57;100954.12;1671192;82;26694;-79
2021/07/11 11:02:51;;;;;;;1.12;1.12;;;;;;;25.66;58.92;100953.84;1698423;82;25893;-78
2021/07/11 11:05:23;;;;;;;2.72;1.32;;;;;;;25.76;57.78;100957.92;1692120;84;25792;-78
2021/07/11 11:08:12;;;;;;;4.12;1.67;;;;;;;25.71;58.07;100956.55;1656577;81;25830;-79
2021/07/11 11:10:43;;;;;;;5.08;1.57;;;;;;;25.82;58.68;100951.31;1702592;82;27368;-78
2021/07/11 11:13:19;;;;;;;2.37;1.57;;;;;;;25.94;57.20;100955.39;1728175;82;26173;-79
2021/07/11 11:15:58;;;;;;;1.85;1.40;;;;;;;25.91;57.44;100954.59;1717175;81;26052;-79
2021/07/11 11:18:38;;;;;;;2.62;1.05;;;;;;;25.88;55.77;100949.65;1657803;82;26450;-79
2021/07/11 11:21:21;;;;;;;1.70;1.50;;;;;;;25.84;56.30;100953.22;1724913;82;25803;-79
2021/07/11 11:23:53;;;;;;;1.65;1.30;;;;;;;25.90;56.86;100954.30;1719551;82;27477;-78
2021/07/11 11:26:28;;;;;;;1.62;1.52;;;;;;;25.97;57.04;100949.89;1724206;82;25842;-78
2021/07/11 11:28:57;;;;;;;1.67;1.50;;;;;;;25.98;56.41;100948.23;1698134;81;25730;-78
2021/07/11 11:31:31;;;;;;;1.37;1.27;;;;;;;25.99;55.92;100955.38;1722367;81;26136;-78
2021/07/11 11:34:08;;;;;;;2.47;1.17;;;;;;;26.07;56.99;100949.05;1716112;83;25800;-78
2021/07/11 11:36:45;;;;;;;1.50;1.40;;;;;;;26.17;55.16;100950.41;1691444;81;28128;-79
2021/07/11 11:39:28;;;;;;;2.35;1.62;;;;;;;26.16;56.60;100943.25;1678421;81;25836;-78
2021/07/11 11:41:54;;;;;;;1.57;1.37;;;;;;;26.19;55.67;100940.79;1725921;81;26408;-79